Flight Track Log - Related Links

Times and Time Zones

All times are in EDT time to prevent confusion due to time zone crossing. See the DAL3982 flight status page for this flight to view local times or setup timezone preferences in your user account.

Time Position Orientation Groundspeed Altitude Reporting Facility
EDT Latitude Longitude Course Direction KTS MPH feet Rate Location/Type
Thu 09:07:37 PM 33.6500 -84.4333 North 89 102 1,000  Level Atlanta TRACON
Thu 09:08:37 PM 33.6500 -84.4333 North 17 20 1,000 1,050 Level Atlanta TRACON
Thu 09:09:37 PM 33.6500 -84.3333 90° East 232 267 3,100 2,300 Climbing Atlanta TRACON
Thu 09:10:37 PM 33.6833 -84.2500 64° Northeast 288 331 5,600 2,650 Climbing Atlanta TRACON
Thu 09:11:00 PM 33.8421 -84.1754 320° Northwest  Level FlightAware Approximate
Thu 09:11:37 PM 33.7667 -84.2333 North 300 345 8,400  Level Atlanta TRACON
Thu 09:12:00 PM 33.9399 -84.2667 North  Level FlightAware Approximate
Thu 09:13:00 PM 34.0650 -84.2667 North  Level FlightAware Approximate
Thu 09:13:53 PM 33.9631 -84.2517 356° North 363 418 11,600  Level Atlanta Center
Thu 09:14:53 PM 34.0800 -84.2644 355° North 401 461 13,200 1,750 Climbing Atlanta Center
Thu 09:15:53 PM 34.1947 -84.2722 357° North 414 476 15,100 1,750 Climbing Atlanta Center
Thu 09:16:53 PM 34.3136 -84.2753 359° North 425 489 16,700 1,600 Climbing Atlanta Center
Thu 09:17:53 PM 34.4453 -84.2453 11° North 431 496 18,300 1,600 Climbing Atlanta Center
Thu 09:18:53 PM 34.5706 -84.2153 11° North 442 509 19,900 1,650 Climbing Atlanta Center
Thu 09:19:53 PM 34.6811 -84.1903 11° North 449 517 21,600 1,450 Climbing Atlanta Center
Thu 09:20:53 PM 34.8064 -84.1628 10° North 449 517 22,800 1,100 Climbing Atlanta Center
Thu 09:21:53 PM 34.9336 -84.1325 11° North 454 522 23,800 1,000 Climbing Atlanta Center
Thu 09:22:53 PM 35.0653 -84.0997 12° North 467 537 24,800 1,000 Climbing Atlanta Center
Thu 09:23:53 PM 35.1947 -84.0692 11° North 467 537 25,800 1,000 Climbing Atlanta Center
Thu 09:24:53 PM 35.3261 -84.0361 12° North 467 537 26,800 1,000 Climbing Atlanta Center
Thu 09:25:53 PM 35.4594 -84.0056 11° North 472 543 27,800 1,000 Climbing Atlanta Center
Thu 09:26:53 PM 35.5911 -83.9725 12° North 472 543 28,800 600 Climbing Atlanta Center
Thu 09:27:53 PM 35.7286 -83.9389 11° North 477 549 29,000 100 Climbing Atlanta Center
Thu 09:28:53 PM 35.8622 -83.9056 11° North 484 557 29,000  Level Atlanta Center
Thu 09:29:53 PM 35.9914 -83.8386 23° Northeast 489 563 29,000  Level Atlanta Center
Thu 09:32:05 PM 36.2700 -83.6650 27° Northeast 505 581 29,000  Level Indianapolis Center
Thu 09:33:06 PM 36.3936 -83.5833 28° Northeast 504 580 29,000  Level Indianapolis Center
Thu 09:34:07 PM 36.5369 -83.4947 26° Northeast 514 592 29,000  Level Indianapolis Center
Thu 09:35:09 PM 36.6650 -83.4125 27° Northeast 515 593 29,000  Level Indianapolis Center
Thu 09:36:10 PM 36.7933 -83.3311 27° Northeast 513 590 29,000  Level Indianapolis Center
Thu 09:37:11 PM 36.9222 -83.2483 27° Northeast 515 593 29,000  Level Indianapolis Center
Thu 09:38:12 PM 37.0511 -83.1642 28° Northeast 518 596 29,000  Level Indianapolis Center
Thu 09:39:13 PM 37.1800 -83.0811 27° Northeast 514 592 29,000  Level Indianapolis Center
Thu 09:40:14 PM 37.3069 -82.9978 28° Northeast 513 590 29,000  Level Indianapolis Center
Thu 09:41:15 PM 37.4339 -82.9136 28° Northeast 512 589 29,000  Level Indianapolis Center
Thu 09:42:17 PM 37.5606 -82.8300 28° Northeast 514 592 29,000  Level Indianapolis Center
Thu 09:43:18 PM 37.6858 -82.7461 28° Northeast 509 586 29,000  Level Indianapolis Center
Thu 09:44:19 PM 37.8122 -82.6631 27° Northeast 510 587 29,000  Level Indianapolis Center
Thu 09:45:20 PM 37.9364 -82.5794 28° Northeast 504 580 29,000  Level Indianapolis Center
Thu 09:46:21 PM 38.0619 -82.4953 28° Northeast 507 583 29,000  Level Indianapolis Center
Thu 09:47:22 PM 38.2061 -82.3992 28° Northeast 508 585 29,000  Level Indianapolis Center
Thu 09:48:24 PM 38.3311 -82.3147 28° Northeast 508 585 29,000  Level Indianapolis Center
Thu 09:49:25 PM 38.4561 -82.2303 28° Northeast 508 585 29,000  Level Indianapolis Center
Thu 09:50:26 PM 38.5811 -82.1458 28° Northeast 506 582 29,000  Level Indianapolis Center
Thu 09:51:27 PM 38.7058 -82.0600 28° Northeast 504 580 29,000  Level Indianapolis Center
Thu 09:52:28 PM 38.8278 -81.9650 31° Northeast 509 586 29,000  Level Indianapolis Center
Thu 09:53:29 PM 38.9469 -81.8656 33° Northeast 505 581 29,000  Level Indianapolis Center
Thu 09:54:31 PM 39.0658 -81.7636 34° Northeast 507 583 29,000  Level Indianapolis Center
Thu 09:55:32 PM 39.1847 -81.6614 34° Northeast 509 586 29,000  Level Indianapolis Center
Thu 09:56:33 PM 39.3031 -81.5594 34° Northeast 507 583 29,000  Level Indianapolis Center
Thu 09:57:34 PM 39.4208 -81.4581 34° Northeast 506 582 29,000  Level Indianapolis Center
Thu 09:58:35 PM 39.5378 -81.3558 34° Northeast 506 582 29,000  Level Indianapolis Center
Thu 09:59:14 PM 39.6167 -81.2892 33° Northeast 520 598 29,000  Level Cleveland Center
Thu 10:00:14 PM 39.7278 -81.1797 37° Northeast 508 585 29,000  Level Cleveland Center
Thu 10:01:14 PM 39.8369 -81.0617 40° Northeast 502 578 29,000  Level Cleveland Center
Thu 10:02:14 PM 39.9414 -80.9433 41° Northeast 497 572 29,000  Level Cleveland Center
Thu 10:03:14 PM 40.0481 -80.8244 40° Northeast 502 578 29,000  Level Cleveland Center
Thu 10:04:14 PM 40.1547 -80.7053 40° Northeast 502 578 29,000  Level Cleveland Center
Thu 10:05:14 PM 40.2589 -80.5886 41° Northeast 502 578 29,000  Level Cleveland Center
Thu 10:06:14 PM 40.3653 -80.4686 41° Northeast 502 578 29,000  Level Cleveland Center
Thu 10:07:14 PM 40.4714 -80.3483 41° Northeast 502 578 29,000  Level Cleveland Center
Thu 10:08:14 PM 40.5856 -80.2139 42° Northeast 502 578 29,000  Level Cleveland Center
Thu 10:09:14 PM 40.6894 -80.0931 41° Northeast 502 578 29,000  Level Cleveland Center
Thu 10:10:14 PM 40.7889 -79.9797 41° Northeast 507 583 29,000  Level Cleveland Center
Thu 10:11:14 PM 40.8944 -79.8608 40° Northeast 507 583 29,000  Level Cleveland Center
Thu 10:12:14 PM 41.0000 -79.7383 41° Northeast 501 577 29,000  Level Cleveland Center
Thu 10:13:14 PM 41.1033 -79.6158 42° Northeast 508 585 29,000  Level Cleveland Center
Thu 10:14:14 PM 41.2167 -79.4844 41° Northeast 503 579 29,000  Level Cleveland Center
Thu 10:15:14 PM 41.3239 -79.3583 41° Northeast 508 585 29,000  Level Cleveland Center
Thu 10:16:14 PM 41.4308 -79.2317 42° Northeast 508 585 29,000  Level Cleveland Center
Thu 10:17:14 PM 41.5397 -79.1044 41° Northeast 508 585 29,000  Level Cleveland Center
Thu 10:18:14 PM 41.6342 -78.9911 42° Northeast 508 585 29,000  Level Cleveland Center
Thu 10:19:14 PM 41.7386 -78.8633 42° Northeast 508 585 29,000  Level Cleveland Center
Thu 10:20:14 PM 41.8472 -78.7350 41° Northeast 508 585 29,000  Level Cleveland Center
Thu 10:21:14 PM 41.9514 -78.6092 42° Northeast 508 585 29,000  Level Cleveland Center
Thu 10:22:14 PM 42.0553 -78.4772 43° Northeast 508 585 29,000  Level Cleveland Center
Thu 10:23:14 PM 42.1633 -78.3506 41° Northeast 508 585 29,000  Level Cleveland Center
Thu 10:24:14 PM 42.2714 -78.2206 42° Northeast 513 590 29,000  Level Cleveland Center
Thu 10:25:14 PM 42.3750 -78.0900 43° Northeast 513 590 29,000  Level Cleveland Center
Thu 10:26:14 PM 42.4783 -77.9622 42° Northeast 506 582 29,000  Level Cleveland Center
Thu 10:27:14 PM 42.5797 -77.8394 42° Northeast 506 582 29,000  Level Cleveland Center
Thu 10:28:14 PM 42.6747 -77.7167 44° Northeast 501 577 29,000  Level Cleveland Center
Thu 10:29:14 PM 42.7878 -77.5758 42° Northeast 513 590 29,000  Level Cleveland Center
Thu 10:30:14 PM 42.8989 -77.4342 43° Northeast 508 585 29,000  Level Cleveland Center
Thu 10:32:27 PM 43.1200 -77.1544 43° Northeast 497 572 29,000  Level Boston Center
Thu 10:33:24 PM 43.2233 -77.0225 43° Northeast 503 579 29,000  Level Boston Center
Thu 10:34:25 PM 43.3267 -76.8875 44° Northeast 503 579 29,000  Level Boston Center
Thu 10:35:26 PM 43.4319 -76.7522 43° Northeast 503 579 29,000  Level Boston Center
Thu 10:36:26 PM 43.5283 -76.6303 43° Northeast 508 585 29,000 -51 Level Boston Center
Thu 10:37:24 PM 43.6289 -76.4967 44° Northeast 508 585 28,900  Descending Boston Center
Thu 10:38:25 PM 43.7339 -76.3600 43° Northeast 503 579 29,000 49 Climbing Boston Center
Thu 10:39:27 PM 43.8364 -76.2256 43° Northeast 503 579 29,000 -443 Level Boston Center
Thu 10:40:27 PM 43.9386 -76.0906 44° Northeast 503 579 28,100 -500 Descending Boston Center
Thu 10:41:27 PM 44.0528 -75.9761 36° Northeast 498 573 28,000 -50 Descending Boston Center
Thu 10:42:26 PM 44.1747 -75.8706 32° Northeast 509 586 28,000 -50 Level Boston Center
Thu 10:43:27 PM 44.2944 -75.7642 32° Northeast 509 586 27,900  Descending Boston Center
Thu 10:44:14 PM 44.3833 -75.6667 38° Northeast 500 575 28,000 56 Climbing Montreal Center
Thu 10:45:14 PM 44.4667 -75.5167 52° Northeast 510 587 28,000  Level Montreal Center
Thu 10:46:24 PM 44.5972 -75.3586 41° Northeast 497 572 28,000  Level Boston Center
Thu 10:47:26 PM 44.6906 -75.2114 48° Northeast 502 578 28,000  Level Boston Center
Thu 10:48:25 PM 44.7856 -75.0694 47° Northeast 502 578 28,000 -1,167 Level Boston Center
Thu 10:49:14 PM 44.8500 -74.9333 56° Northeast 500 575 25,900 -2,752 Descending Montreal Center
Thu 10:50:14 PM 44.9500 -74.7833 47° Northeast 510 587 23,000 -2,800 Descending Montreal Center
Thu 10:51:14 PM 45.0500 -74.6333 47° Northeast 500 575 20,300 -2,900 Descending Montreal Center
Thu 10:52:14 PM 45.1500 -74.5000 43° Northeast 490 564 17,200 -2,900 Descending Montreal Center
Thu 10:53:14 PM 45.2167 -74.3500 58° Northeast 470 541 14,500 -2,350 Descending Montreal Center
Thu 10:54:14 PM 45.2833 -74.2000 58° Northeast 430 495 12,500 -1,633 Descending Montreal Center
Thu 10:56:14 PM 45.4000 -73.9667 54° Northeast 340 391 9,600 -1,767 Descending Montreal Center
Thu 10:57:14 PM 45.4667 -73.8833 41° Northeast 330 380 7,200 -2,500 Descending Montreal Center
Thu 10:58:14 PM 45.5333 -73.7833 46° Northeast 330 380 4,600 -2,100 Descending Montreal Center
Thu 10:59:14 PM 45.6000 -73.7000 41° Northeast 310 357 3,000 -1,150 Descending Montreal Center
Thu 11:00:14 PM 45.5667 -73.6500 134° Southeast 160 184 2,300 -700 Descending Montreal Center

Login

Don't have an account? Register now (free) for customized features, flight alerts, and more!